Flight Track Log - Related Links

Times and Time Zones

All times are in EDT time to prevent confusion due to time zone crossing. See the AFR6042 flight status page for this flight to view local times or setup timezone preferences in your user account.

Time Position Orientation Groundspeed Altitude Reporting Facility
EDT Latitude Longitude Course Direction KTS MPH feet Rate Location/Type
Wed 01:22:00 PM 47.3628 3.1525 158° South  Level Estimated
Wed 01:23:00 PM 47.2718 3.2039 159° South  Level Estimated
Wed 01:24:00 PM 47.1808 3.2551 159° South  Level Estimated
Wed 01:25:00 PM 47.0897 3.3062 159° South  Level Estimated
Wed 01:26:00 PM 46.9986 3.3571 159° South  Level Estimated
Wed 01:27:00 PM 46.9075 3.4078 159° South  Level Estimated
Wed 01:28:00 PM 46.8163 3.4583 159° South  Level Estimated
Wed 01:29:00 PM 46.7252 3.5087 159° South  Level Estimated
Wed 01:30:00 PM 46.6340 3.5589 159° South  Level Estimated
Wed 01:31:00 PM 46.5428 3.6089 159° South  Level Estimated
Wed 01:32:00 PM 46.4516 3.6587 159° South  Level Estimated
Wed 01:33:00 PM 46.3604 3.7084 159° South  Level Estimated
Wed 01:34:00 PM 46.2691 3.7579 159° South  Level Estimated
Wed 01:35:00 PM 46.1778 3.8073 159° South  Level Estimated
Wed 01:36:00 PM 46.0865 3.8565 160° South  Level Estimated
Wed 01:37:00 PM 45.9952 3.9055 160° South  Level Estimated
Wed 01:38:00 PM 45.9038 3.9544 160° South  Level Estimated
Wed 01:39:00 PM 45.8124 4.0031 160° South  Level Estimated
Wed 01:40:00 PM 45.7210 4.0517 160° South  Level Estimated
Wed 01:41:00 PM 45.6296 4.1000 160° South  Level Estimated
Wed 01:42:00 PM 45.5382 4.1483 160° South  Level Estimated
Wed 01:43:00 PM 45.4602 4.1893 160° South  Level Estimated
Wed 01:44:00 PM 45.3822 4.2302 160° South  Level Estimated
Wed 01:45:00 PM 45.3041 4.2710 160° South  Level Estimated
Wed 01:46:00 PM 45.2261 4.3117 160° South  Level Estimated
Wed 01:47:00 PM 45.1480 4.3522 160° South  Level Estimated
Wed 01:48:00 PM 45.0700 4.3927 160° South  Level Estimated
Wed 01:49:00 PM 44.9919 4.4331 160° South  Level Estimated
Wed 01:50:00 PM 44.9138 4.4733 160° South  Level Estimated
Wed 01:51:00 PM 44.8357 4.5134 160° South  Level Estimated
Wed 01:52:00 PM 44.7575 4.5534 160° South  Level Estimated
Wed 01:53:00 PM 44.6794 4.5933 160° South  Level Estimated
Wed 01:54:00 PM 44.6012 4.6332 160° South  Level Estimated
Wed 01:55:00 PM 44.5231 4.6729 160° South  Level Estimated
Wed 01:56:00 PM 44.4449 4.7124 160° South  Level Estimated
Wed 01:57:00 PM 44.3667 4.7519 160° South  Level Estimated
Wed 01:58:00 PM 44.2885 4.7913 160° South  Level Estimated
Wed 01:59:00 PM 44.2102 4.8306 160° South  Level Estimated
Wed 02:00:00 PM 44.1320 4.8697 160° South  Level Estimated
Wed 02:01:00 PM 44.0537 4.9088 160° South  Level Estimated
Wed 02:02:00 PM 43.9755 4.9478 160° South  Level Estimated
Wed 02:03:00 PM 43.8972 4.9866 160° South  Level Estimated
Wed 02:04:00 PM 43.8189 5.0254 160° South  Level Estimated
Wed 02:05:00 PM 43.7406 5.0641 160° South  Level Estimated
Wed 02:06:00 PM 43.6623 5.1026 160° South  Level Estimated
Wed 02:07:00 PM 43.5839 5.1411 160° South  Level Estimated
Wed 02:08:00 PM 43.5056 5.1794 160° South  Level Estimated
Wed 02:09:00 PM 43.4356 5.2136 160° South  Level Estimated
Wed 02:10:00 PM 43.4356 5.2136 172° South  Level Estimated
Wed 02:11:00 PM 43.4356 5.2136 172° South  Level Estimated
Wed 02:12:00 PM 43.4356 5.2136 172° South  Level Estimated
Wed 02:13:00 PM 43.4356 5.2136 172° South  Level Estimated
Wed 02:14:00 PM 43.4356 5.2136 172° South  Level Estimated
Wed 02:15:00 PM 43.4356 5.2136 172° South  Level Estimated
Wed 02:16:00 PM 43.4356 5.2136 172° South  Level Estimated
Wed 02:17:00 PM 43.4356 5.2136 172° South  Level Estimated
Wed 02:18:00 PM 43.4356 5.2136 172° South  Level Estimated
Wed 02:19:00 PM 43.4356 5.2136 172° South  Level Estimated
Wed 02:20:00 PM 43.4356 5.2136 172° South  Level Estimated
Wed 02:21:00 PM 43.4356 5.2136 172° South  Level Estimated
Wed 02:22:00 PM 43.4356 5.2136 172° South  Level Estimated
Wed 02:23:00 PM 43.4356 5.2136 172° South  Level Estimated
Wed 02:24:00 PM 43.4356 5.2136 172° South  Level Estimated
Wed 02:25:00 PM 43.4356 5.2136 172° South  Level Estimated
Wed 02:26:00 PM 43.4356 5.2136 172° South  Level Estimated
Wed 02:27:00 PM 43.4356 5.2136 172° South  Level Estimated
Wed 02:28:00 PM 43.4356 5.2136 172° South  Level Estimated

Login

Don't have an account? Register now (free) for customized features, flight alerts, and more!